Latest Weather Observations for Stenhouse Bay

IDS60801

Issued at 1:51 pm CDT Sunday 16 December 2018 (issued every 10 minutes, with the page automatically refreshed every 10 minutes)

About weather observations | Map of weather stations | Latest weather observations for SA | Other Formats
Station Details ID: 022049 Name: STENHOUSE BAY Lat: -35.28 Lon: 136.94 Height: 42.0 m
Data from the previous 72 hours. | See also: Recent months at Stenhouse Bay
Date/Time
CDT
Temp
°C
App
Temp
°C
Dew
Point
°C
Rel
Hum
%
Delta-T
°C
Wind Press
QNH
hPa
Press
MSL
hPa
Rain since
9am
mm
Dir  Spd
km/h
Gust
km/h
Spd
kts
Gust
kts
16/01:30pm 20.1 18.1 14.9 72 3.1 SW 19 24 10 13 1009.5 1009.3 0.0
16/01:00pm 20.3 18.3 14.9 71 3.2 SW 19 24 10 13 1009.6 1009.4 0.0
16/12:30pm 19.7 17.5 14.5 72 3.0 SW 19 24 10 13 1009.8 1009.6 0.0
16/12:00pm 19.8 17.7 14.8 73 2.9 SW 19 28 10 15 1009.8 1009.6 0.0
16/11:30am 19.5 16.8 14.5 73 2.9 SW 22 28 12 15 1009.8 1009.6 0.0
16/11:00am 19.0 16.3 14.7 76 2.5 SW 22 32 12 17 1009.5 1009.3 0.0
16/10:30am 18.4 16.0 14.5 78 2.3 SW 20 26 11 14 1009.3 1009.1 0.0
16/10:00am 18.0 15.8 14.5 80 2.0 SW 19 28 10 15 1009.1 1008.9 0.0
16/09:30am 18.0 15.8 14.3 79 2.1 SW 19 26 10 14 1008.9 1008.7 0.0
16/09:00am 17.6 15.0 13.9 79 2.1 SW 20 28 11 15 1008.9 1008.7 0.0
16/08:30am 17.3 15.0 14.0 81 1.9 SSW 19 24 10 13 1008.5 1008.3 0.0
16/08:00am 16.9 15.1 14.5 86 1.4 SSW 17 22 9 12 1008.1 1007.9 0.0
16/07:30am 16.1 13.9 14.5 90 0.9 SSW 19 28 10 15 1007.8 1007.6 0.0
16/07:00am 15.9 12.4 14.6 92 0.7 SSW 26 33 14 18 1007.4 1007.2 0.0
16/06:30am 15.6 12.9 14.5 93 0.6 SSW 22 32 12 17 1007.2 1007.0 0.0
16/06:00am 15.7 12.9 14.2 91 0.9 SW 22 30 12 16 1006.9 1006.7 0.0
16/05:30am 15.8 12.6 14.3 91 0.9 SW 24 32 13 17 1006.5 1006.3 0.0
16/05:00am 15.9 12.8 14.6 92 0.7 SW 24 30 13 16 1006.3 1006.1 0.0
16/04:30am 15.9 13.2 14.6 92 0.7 SW 22 32 12 17 1006.0 1005.9 0.0
16/04:00am 15.9 12.8 14.4 91 0.9 SW 24 32 13 17 1006.1 1006.0 0.0
16/03:30am 15.9 13.1 14.3 90 0.9 SW 22 32 12 17 1006.0 1005.9 0.0
16/03:00am 16.0 13.2 14.4 90 0.9 SW 22 30 12 16 1005.8 1005.7 0.0
16/02:30am 16.1 13.9 14.5 90 0.9 SW 19 26 10 14 1006.0 1005.9 0.0
16/02:00am 16.1 14.3 14.5 90 0.9 SW 17 26 9 14 1006.1 1006.0 0.0
16/01:30am 15.9 13.7 14.3 90 0.9 SW 19 24 10 13 1005.9 1005.8 0.0
16/01:00am 16.1 13.7 14.3 89 1.0 SW 20 28 11 15 1006.3 1006.1 0.0
16/12:30am 16.0 13.2 14.2 89 1.0 SSW 22 28 12 15 1006.1 1006.0 0.0
16/12:00am 16.1 13.9 14.5 90 0.9 SW 19 26 10 14 1006.0 1005.9 0.0
 
Date/Time
CDT
Temp
°C
App
Temp
°C
Dew
Point
°C
Rel
Hum
%
Delta-T
°C
Wind Press
QNH
hPa
Press
MSL
hPa
Rain since
9am
mm
Dir  Spd
km/h
Gust
km/h
Spd
kts
Gust
kts
15/11:30pm 16.1 13.7 14.5 90 0.9 SW 20 26 11 14 1006.0 1005.9 0.0
15/11:00pm 16.4 14.1 14.6 89 1.0 SW 20 24 11 13 1006.3 1006.1 0.0
15/10:30pm 16.6 14.4 14.8 89 1.0 SW 20 28 11 15 1006.3 1006.1 0.0
15/10:00pm 16.8 14.7 14.8 88 1.2 SW 19 24 10 13 1006.0 1005.9 0.0
15/09:30pm 16.9 14.7 14.9 88 1.2 SW 20 28 11 15 1005.7 1005.6 0.0
15/09:00pm 17.2 15.6 15.0 87 1.3 SSW 17 22 9 12 1005.5 1005.4 0.0
15/08:30pm 17.4 16.3 15.2 87 1.3 SSW 15 22 8 12 1005.4 1005.3 0.0
15/08:00pm 17.5 16.3 15.0 85 1.5 SSW 15 26 8 14 1005.2 1005.1 0.0
15/07:30pm 17.7 15.5 14.8 83 1.7 SW 20 28 11 15 1005.0 1004.9 0.0
15/07:00pm 19.5 17.6 15.2 76 2.5 SW 19 24 10 13 1004.7 1004.6 0.0
15/06:30pm 20.2 19.4 15.0 72 3.1 SSW 13 20 7 11 1004.4 1004.3 0.0
15/06:00pm 19.5 18.0 15.4 77 2.4 SSW 17 24 9 13 1004.6 1004.5 0.0
15/05:30pm 20.4 18.5 15.2 72 3.1 SW 19 24 10 13 1004.5 1004.4 0.0
15/05:00pm 21.4 20.0 15.5 69 3.5 SW 17 20 9 11 1004.3 1004.2 0.0
15/04:30pm 21.5 20.7 15.1 67 3.8 SW 13 17 7 9 1004.6 1004.5 0.0
15/04:00pm 20.5 20.0 14.8 70 3.3 SSW 11 15 6 8 1004.9 1004.8 0.0
15/03:30pm 20.0 20.0 15.2 74 2.8 SSW 9 13 5 7 1005.2 1005.1 0.0
15/03:00pm 20.7 20.8 15.5 72 3.1 SSW 9 15 5 8 1005.2 1005.1 0.0
15/02:30pm 20.4 20.7 15.0 71 3.2 SSW 7 9 4 5 1005.4 1005.3 0.0
15/02:00pm 19.5 19.8 15.0 75 2.6 SSE 7 9 4 5 1005.8 1005.7 0.0
15/01:30pm 19.2 19.7 15.5 79 2.2 SSE 7 9 4 5 1006.1 1006.0 0.0
15/01:00pm 19.3 19.9 15.8 80 2.1 ESE 7 11 4 6 1006.3 1006.1 0.0
15/12:30pm 19.0 18.8 15.7 81 2.0 SE 11 15 6 8 1006.4 1006.2 0.0
15/12:00pm 18.9 18.6 15.4 80 2.1 SSW 11 17 6 9 1006.5 1006.3 0.0
15/11:30am 19.2 18.4 15.1 77 2.4 S 13 17 7 9 1006.6 1006.4 0.0
15/11:00am 19.5 18.5 14.7 74 2.8 S 13 17 7 9 1006.7 1006.5 0.0
15/10:30am 18.8 17.5 14.9 78 2.3 S 15 19 8 10 1006.7 1006.5 0.0
15/10:00am 18.5 17.1 14.6 78 2.3 SSW 15 20 8 11 1006.8 1006.6 0.0
15/09:30am 18.6 17.9 15.3 81 1.9 S 13 20 7 11 1007.0 1006.8 0.0
15/09:00am 17.7 16.0 14.8 83 1.7 SSE 17 20 9 11 1006.9 1006.7 2.4
15/08:30am 17.2 15.5 14.8 86 1.4 S 17 22 9 12 1006.5 1006.3 2.4
15/08:00am 16.9 14.9 14.9 88 1.2 SSE 19 22 10 12 1006.5 1006.3 2.4
15/07:30am 16.7 14.4 14.7 88 1.2 SE 20 26 11 14 1006.5 1006.3 2.4
15/07:00am 16.9 14.7 14.4 85 1.4 SSE 19 24 10 13 1006.3 1006.1 2.4
15/06:30am 16.7 13.5 14.3 86 1.4 SSE 24 33 13 18 1006.0 1005.9 2.4
15/06:00am 16.6 14.1 14.2 86 1.4 SSE 20 28 11 15 1005.8 1005.7 2.4
15/05:30am 16.7 14.8 14.2 85 1.4 SSE 17 22 9 12 1006.0 1005.9 2.4
15/05:00am 16.5 14.2 14.0 85 1.4 S 19 22 10 12 1005.6 1005.5 2.4
15/04:30am 16.3 15.4 13.8 85 1.4 SSW 11 17 6 9 1005.9 1005.8 2.4
15/04:00am 16.4 14.0 13.9 85 1.4 S 19 24 10 13 1006.3 1006.1 2.4
15/03:30am 16.4 14.3 13.5 83 1.6 S 17 22 9 12 1006.3 1006.1 2.4
15/03:00am 16.4 14.7 13.7 84 1.5 S 15 20 8 11 1006.3 1006.1 2.4
15/02:30am 16.3 13.6 13.6 84 1.5 SSE 20 24 11 13 1006.7 1006.5 2.4
15/02:00am 16.2 12.8 13.7 85 1.4 SSE 24 28 13 15 1007.1 1006.9 2.4
15/01:30am 16.1 13.1 13.6 85 1.4 SSE 22 28 12 15 1007.5 1007.3 2.4
15/01:00am 16.0 12.2 13.5 85 1.4 SSE 26 32 14 17 1007.9 1007.7 2.4
15/12:30am 16.0 11.4 13.5 85 1.4 SSE 30 37 16 20 1008.1 1007.9 2.4
15/12:00am 15.9 11.3 13.6 86 1.3 SSE 30 41 16 22 1008.0 1007.8 2.4
 
Date/Time
CDT
Temp
°C
App
Temp
°C
Dew
Point
°C
Rel
Hum
%
Delta-T
°C
Wind Press
QNH
hPa
Press
MSL
hPa
Rain since
9am
mm
Dir  Spd
km/h
Gust
km/h
Spd
kts
Gust
kts
14/11:30pm 15.6 10.6 13.4 87 1.2 SSE 32 39 17 21 1008.5 1008.3 2.4
14/11:00pm 15.7 9.8 13.5 87 1.2 SSE 37 46 20 25 1008.5 1008.3 2.4
14/10:30pm 15.9 10.7 13.4 85 1.4 SSE 33 46 18 25 1008.9 1008.7 2.4
14/10:00pm 15.7 8.9 13.0 84 1.5 SSE 41 52 22 28 1008.3 1008.1 2.4
14/09:30pm 15.7 10.1 13.2 85 1.4 SSE 35 48 19 26 1008.3 1008.1 2.4
14/09:00pm 15.6 9.6 13.3 86 1.3 SSE 37 46 20 25 1008.6 1008.4 2.4
14/08:30pm 15.7 10.2 13.5 87 1.2 SSE 35 44 19 24 1008.9 1008.7 2.4
14/08:00pm 15.6 8.9 13.3 86 1.3 SSE 41 52 22 28 1008.8 1008.6 2.4
14/07:30pm 15.6 8.5 13.3 86 1.3 SSE 43 57 23 31 1008.6 1008.4 2.4
14/07:00pm 15.5 8.4 13.3 87 1.2 SSE 43 54 23 29 1008.6 1008.4 2.4
14/06:30pm 15.3 9.1 13.7 90 0.9 SSE 39 50 21 27 1008.5 1008.3 2.4
14/06:00pm 15.3 8.7 13.8 91 0.8 SSE 41 48 22 26 1008.3 1008.1 1.6
14/05:30pm 16.0 7.9 13.1 83 1.6 SSE 48 59 26 32 1008.1 1007.9 0.0
14/05:00pm 16.1 8.2 12.7 80 1.9 SSE 46 56 25 30 1008.1 1007.9 0.0
14/04:30pm 16.3 8.8 12.7 79 2.0 SSE 44 56 24 30 1008.2 1008.0 0.0
14/04:00pm 16.5 8.6 12.7 78 2.1 SSE 46 57 25 31 1008.3 1008.1 0.0
14/03:30pm 16.9 9.5 12.6 76 2.4 SSE 43 57 23 31 1008.3 1008.1 0.0
14/03:00pm 17.2 9.3 12.7 75 2.5 SSE 46 59 25 32 1008.1 1007.9 0.0
14/02:30pm 17.3 9.8 12.8 75 2.5 SSE 44 56 24 30 1008.2 1008.0 0.0
14/02:00pm 16.5 8.2 12.5 77 2.2 SSE 48 59 26 32 1008.4 1008.2 0.0
14/01:30pm 16.8 9.2 12.3 75 2.5 SSE 44 56 24 30 1008.3 1008.1 0.0
14/01:00pm 16.8 8.8 12.3 75 2.5 SSE 46 61 25 33 1008.2 1008.0 0.0
14/12:30pm 16.9 9.1 13.0 78 2.2 SSE 46 59 25 32 1008.1 1007.9 0.0
14/12:00pm 16.2 8.3 12.6 79 2.0 SSE 46 61 25 33 1008.5 1008.3 0.0
14/11:30am 16.3 8.8 12.8 80 1.9 SSE 44 59 24 32 1008.9 1008.7 0.0
14/11:00am 16.3 7.9 12.3 77 2.2 SSE 48 63 26 34 1008.1 1007.9 0.0
14/10:30am 15.8 7.1 12.5 81 1.8 SSE 50 61 27 33 1008.2 1008.0 0.0
14/10:00am 15.2 5.3 12.3 83 1.6 SSE 56 67 30 36 1008.5 1008.3 0.0
14/09:30am 15.1 6.7 12.4 84 1.5 SSE 48 61 26 33 1008.6 1008.4 0.0
14/09:00am 15.3 6.9 12.4 83 1.6 S 48 61 26 33 1008.5 1008.3 0.6
14/08:30am 15.1 6.5 11.7 80 1.8 S 48 63 26 34 1008.5 1008.3 0.6
14/08:00am 14.6 5.5 11.2 80 1.8 S 50 61 27 33 1008.6 1008.4 0.6
14/07:30am 14.6 6.3 11.4 81 1.7 S 46 65 25 35 1008.6 1008.4 0.6
14/07:00am 14.3 6.0 11.5 83 1.5 S 46 69 25 37 1008.5 1008.3 0.6
14/06:36am 13.9 4.4 11.1 83 1.5 S 52 72 28 39 1008.1 1007.9 0.6
14/06:30am 14.0 3.7 11.2 83 1.5 S 56 72 30 39 1008.1 1007.9 0.6
14/06:01am 13.8 4.6 10.8 82 1.6 S 50 69 27 37 1008.2 1008.0 0.6
14/06:00am 13.7 4.4 10.7 82 1.6 S 50 69 27 37 1008.1 1007.9 0.6
14/05:32am 13.5 3.4 10.5 82 1.6 S 54 74 29 40 1008.1 1007.9 0.6
14/05:30am 13.5 3.1 10.5 82 1.6 S 56 74 30 40 1008.0 1007.8 0.6
14/05:00am 13.5 4.1 10.1 80 1.8 S 50 70 27 38 1008.4 1008.2 0.6
14/04:30am 13.5 4.5 10.3 81 1.7 S 48 67 26 36 1008.4 1008.2 0.6
14/04:00am 13.3 3.8 9.7 79 1.8 S 50 69 27 37 1008.5 1008.3 0.6
14/03:30am 13.0 4.6 9.6 80 1.7 S 44 67 24 36 1008.9 1008.7 0.6
14/03:01am 13.2 4.0 9.5 78 1.9 S 48 69 26 37 1009.7 1009.5 0.6
14/03:00am 13.2 4.0 9.5 78 1.9 S 48 67 26 36 1009.7 1009.5 0.6
14/02:30am 13.4 4.5 9.1 75 2.2 S 46 67 25 36 1010.1 1009.9 0.6
14/02:01am 13.6 4.4 8.2 70 2.7 S 46 65 25 35 1010.3 1010.1 0.6
14/02:00am 13.8 4.4 8.8 72 2.5 S 48 65 26 35 1010.4 1010.2 0.6
14/01:30am 13.6 5.0 8.2 70 2.7 S 43 61 23 33 1010.9 1010.8 0.6
14/01:03am 13.7 4.3 7.0 64 3.3 S 46 67 25 36 1011.1 1011.0 0.6
14/01:00am 13.9 4.6 7.7 66 3.1 S 46 63 25 34 1011.2 1011.1 0.6
14/12:30am 13.7 3.7 7.7 67 3.0 S 50 65 27 35 1011.6 1011.5 0.6
14/12:00am 13.8 4.3 8.2 69 2.8 S 48 65 26 35 1012.1 1012.0 0.6
 
Date/Time
CDT
Temp
°C
App
Temp
°C
Dew
Point
°C
Rel
Hum
%
Delta-T
°C
Wind Press
QNH
hPa
Press
MSL
hPa
Rain since
9am
mm
Dir  Spd
km/h
Gust
km/h
Spd
kts
Gust
kts
13/11:35pm 13.5 4.2 7.5 67 2.9 S 46 65 25 35 1012.5 1012.4 0.6
13/11:30pm 13.5 3.7 7.1 65 3.1 S 48 63 26 34 1012.5 1012.4 0.6
13/11:01pm 13.5 3.6 6.4 62 3.4 S 48 67 26 36 1012.9 1012.8 0.6
13/11:00pm 13.5 3.1 6.1 61 3.5 S 50 67 27 36 1012.9 1012.8 0.6
13/10:51pm 13.4 3.7 6.0 61 3.5 S 46 65 25 35 1012.6 1012.5 0.6
13/10:30pm 13.4 3.3 5.8 60 3.6 S 48 65 26 35 1013.0 1012.9 0.6
13/10:00pm 13.2 4.4 7.4 68 2.8 S 43 59 23 32 1013.3 1013.2 0.6
13/09:30pm 13.0 4.2 7.9 71 2.5 S 44 65 24 35 1013.3 1013.2 0.6
13/09:01pm 13.2 3.0 6.8 65 3.1 S 50 70 27 38 1013.5 1013.4 0.6
13/09:00pm 13.2 2.6 6.8 65 3.1 S 52 70 28 38 1013.5 1013.4 0.6
13/08:52pm 13.2 3.0 7.0 66 3.0 S 50 69 27 37 1013.5 1013.4 0.6
13/08:30pm 13.5 3.4 5.9 60 3.6 S 48 65 26 35 1013.5 1013.4 0.6
13/08:16pm 13.8 4.9 6.7 62 3.4 S 43 63 23 34 1013.3 1013.2 0.6
13/08:00pm 13.7 4.1 6.3 61 3.5 S 46 63 25 34 1013.1 1013.0 0.6
13/07:30pm 13.9 4.7 5.5 57 4.0 S 43 57 23 31 1012.8 1012.7 0.6
13/07:00pm 14.0 5.6 5.4 56 4.1 S 39 63 21 34 1012.3 1012.2 0.6
13/06:37pm 14.1 6.3 6.7 61 3.6 S 37 57 20 31 1012.4 1012.3 0.6
13/06:30pm 13.9 5.2 6.0 59 3.8 S 41 56 22 30 1012.2 1012.1 0.6
13/06:04pm 14.3 4.8 5.1 54 4.3 S 44 65 24 35 1012.5 1012.4 0.6
13/06:00pm 14.4 4.7 6.0 57 4.0 S 46 65 25 35 1012.4 1012.3 0.6
13/05:39pm 15.4 7.1 5.9 53 4.6 S 39 57 21 31 1012.4 1012.3 0.6
13/05:30pm 15.2 7.3 6.2 55 4.4 SSW 37 54 20 29 1012.5 1012.4 0.6
13/05:13pm 14.6 5.0 6.2 57 4.0 S 46 65 25 35 1012.5 1012.4 0.6
13/05:00pm 14.3 3.0 5.4 55 4.2 S 54 72 29 39 1012.3 1012.2 0.6
13/04:30pm 14.6 5.0 6.4 58 4.0 S 46 74 25 40 1012.0 1011.9 0.6
13/04:00pm 15.9 7.0 5.2 49 5.1 S 41 59 22 32 1012.1 1012.0 0.6
13/03:31pm 13.8 2.2 5.7 58 3.8 S 56 76 30 41 1012.3 1012.2 0.6
13/03:30pm 13.7 1.8 5.1 56 4.0 S 57 76 31 41 1012.2 1012.1 0.6
13/03:23pm 14.4 3.5 5.5 55 4.2 S 52 76 28 41 1012.1 1012.0 0.6
13/03:13pm 16.1 7.2 6.8 54 4.6 S 43 61 23 33 1012.1 1012.0 0.6
13/03:00pm 16.1 7.1 4.8 47 5.3 S 41 56 22 30 1012.1 1012.0 0.6
13/02:30pm 15.3 6.6 6.1 54 4.4 S 41 59 22 32 1012.1 1012.0 0.6
13/02:00pm 11.2 -0.3 7.1 76 2.0 S 57 80 31 43 1012.6 1012.5 0.6
13/01:54pm 13.5 3.9 6.4 62 3.4 S 46 80 25 43 1011.9 1011.8 0.4

Other Formats:

Comma delimited format used in spreadsheet applications
http://www.bom.gov.au/fwo/IDS60801/IDS60801.95806.axf

JavaScript Object Notation format (JSON) in row-major order
http://www.bom.gov.au/fwo/IDS60801/IDS60801.95806.json